<?xml version="1.0" encoding="UTF-8" standalone="no" ?>
<gpx xmlns="http://www.topografix.com/GPX/1/1" xmlns:xsi="http://www.w3.org/2001/XMLSchema-instance" xsi:schemaLocation="http://www.topografix.com/GPX/1/1 http://www.topografix.com/GPX/1/1/gpx.xsd" version="1.1" creator="VisuGPX - https://www.visugpx.com">
  <metadata>
    <name>Run4you 2020 - J1 Rocamadour - Payrignac</name>
    <desc><![CDATA[
]]></desc>
  </metadata>
  <wpt lat="44.80415" lon="1.61964">
    <ele>271.2</ele>
    <name><![CDATA[HOTEL Les Esclargies]]></name>
    <type><![CDATA[hotel]]></type>
  </wpt>
  <wpt lat="44.74178" lon="1.43922">
    <ele>226.9</ele>
    <name><![CDATA[J1 -DEJEUNER]]></name>
    <type><![CDATA[ville]]></type>
  </wpt>
  <wpt lat="44.84827" lon="1.28812">
    <ele>171.5</ele>
    <name><![CDATA[Hotel Domaine de Campagnac]]></name>
    <type><![CDATA[hotel]]></type>
  </wpt>
  <wpt lat="44.79656" lon="1.54382">
    <ele>254.1</ele>
    <name><![CDATA[J1 - RAVITAILLEMENT]]></name>
    <type><![CDATA[person]]></type>
  </wpt>
  <trk>
    <name><![CDATA[J1 - Variante Payrignac - Hotel domaine de Campagnac]]></name>
    <trkseg>
      <trkpt lat="44.75978" lon="1.34805">
        <ele>123.176</ele>
        <time>2019-12-01T13:02:21Z</time>
      </trkpt>
      <trkpt lat="44.75978" lon="1.34805">
        <ele>123.176</ele>
        <time>2019-12-01T13:02:21Z</time>
      </trkpt>
      <trkpt lat="44.7608" lon="1.34717">
        <ele>123.758</ele>
        <time>2019-12-01T13:02:41Z</time>
      </trkpt>
      <trkpt lat="44.76189" lon="1.34652">
        <ele>124.211</ele>
        <time>2019-12-01T13:03:01Z</time>
      </trkpt>
      <trkpt lat="44.76236" lon="1.34603">
        <ele>124.321</ele>
        <time>2019-12-01T13:03:21Z</time>
      </trkpt>
      <trkpt lat="44.76262" lon="1.34556">
        <ele>122.903</ele>
        <time>2019-12-01T13:03:41Z</time>
      </trkpt>
      <trkpt lat="44.76283" lon="1.34496">
        <ele>125.908</ele>
        <time>2019-12-01T13:04:01Z</time>
      </trkpt>
      <trkpt lat="44.76349" lon="1.34382">
        <ele>121.485</ele>
        <time>2019-12-01T13:04:21Z</time>
      </trkpt>
      <trkpt lat="44.76397" lon="1.34291">
        <ele>121.995</ele>
        <time>2019-12-01T13:04:41Z</time>
      </trkpt>
      <trkpt lat="44.76409" lon="1.34244">
        <ele>123.721</ele>
        <time>2019-12-01T13:05:01Z</time>
      </trkpt>
      <trkpt lat="44.76438" lon="1.3422">
        <ele>122.564</ele>
        <time>2019-12-01T13:05:21Z</time>
      </trkpt>
      <trkpt lat="44.76483" lon="1.3421">
        <ele>121.041</ele>
        <time>2019-12-01T13:05:41Z</time>
      </trkpt>
      <trkpt lat="44.76593" lon="1.34088">
        <ele>112.659</ele>
        <time>2019-12-01T13:06:01Z</time>
      </trkpt>
      <trkpt lat="44.76642" lon="1.33943">
        <ele>114.959</ele>
        <time>2019-12-01T13:06:21Z</time>
      </trkpt>
      <trkpt lat="44.76684" lon="1.33839">
        <ele>113.311</ele>
        <time>2019-12-01T13:06:41Z</time>
      </trkpt>
      <trkpt lat="44.76724" lon="1.33774">
        <ele>112.852</ele>
        <time>2019-12-01T13:07:01Z</time>
      </trkpt>
      <trkpt lat="44.76735" lon="1.33716">
        <ele>114.853</ele>
        <time>2019-12-01T13:07:21Z</time>
      </trkpt>
      <trkpt lat="44.76757" lon="1.33655">
        <ele>113.508</ele>
        <time>2019-12-01T13:07:41Z</time>
      </trkpt>
      <trkpt lat="44.76769" lon="1.33597">
        <ele>114.508</ele>
        <time>2019-12-01T13:08:01Z</time>
      </trkpt>
      <trkpt lat="44.7674" lon="1.33532">
        <ele>119.019</ele>
        <time>2019-12-01T13:08:21Z</time>
      </trkpt>
      <trkpt lat="44.76729" lon="1.33415">
        <ele>118.079</ele>
        <time>2019-12-01T13:08:41Z</time>
      </trkpt>
      <trkpt lat="44.76739" lon="1.33337">
        <ele>118.465</ele>
        <time>2019-12-01T13:09:01Z</time>
      </trkpt>
      <trkpt lat="44.76759" lon="1.33255">
        <ele>118.128</ele>
        <time>2019-12-01T13:09:21Z</time>
      </trkpt>
      <trkpt lat="44.76789" lon="1.33107">
        <ele>113.945</ele>
        <time>2019-12-01T13:09:41Z</time>
      </trkpt>
      <trkpt lat="44.76805" lon="1.33067">
        <ele>115.763</ele>
        <time>2019-12-01T13:10:01Z</time>
      </trkpt>
      <trkpt lat="44.76839" lon="1.33016">
        <ele>116.143</ele>
        <time>2019-12-01T13:10:21Z</time>
      </trkpt>
      <trkpt lat="44.76881" lon="1.32979">
        <ele>118.075</ele>
        <time>2019-12-01T13:10:41Z</time>
      </trkpt>
      <trkpt lat="44.76917" lon="1.32904">
        <ele>115.488</ele>
        <time>2019-12-01T13:11:01Z</time>
      </trkpt>
      <trkpt lat="44.76957" lon="1.32862">
        <ele>114.424</ele>
        <time>2019-12-01T13:11:21Z</time>
      </trkpt>
      <trkpt lat="44.76988" lon="1.32829">
        <ele>112.526</ele>
        <time>2019-12-01T13:11:41Z</time>
      </trkpt>
      <trkpt lat="44.76991" lon="1.32807">
        <ele>114.608</ele>
        <time>2019-12-01T13:12:01Z</time>
      </trkpt>
      <trkpt lat="44.76974" lon="1.32748">
        <ele>116.492</ele>
        <time>2019-12-01T13:12:21Z</time>
      </trkpt>
      <trkpt lat="44.76977" lon="1.32675">
        <ele>117.762</ele>
        <time>2019-12-01T13:12:41Z</time>
      </trkpt>
      <trkpt lat="44.76961" lon="1.32624">
        <ele>121.378</ele>
        <time>2019-12-01T13:13:01Z</time>
      </trkpt>
      <trkpt lat="44.77018" lon="1.32515">
        <ele>131.131</ele>
        <time>2019-12-01T13:13:21Z</time>
      </trkpt>
      <trkpt lat="44.77108" lon="1.32447">
        <ele>128.048</ele>
        <time>2019-12-01T13:13:41Z</time>
      </trkpt>
      <trkpt lat="44.77129" lon="1.32408">
        <ele>127.516</ele>
        <time>2019-12-01T13:14:01Z</time>
      </trkpt>
      <trkpt lat="44.77228" lon="1.32424">
        <ele>122.816</ele>
        <time>2019-12-01T13:14:21Z</time>
      </trkpt>
      <trkpt lat="44.77275" lon="1.32489">
        <ele>122.828</ele>
        <time>2019-12-01T13:14:41Z</time>
      </trkpt>
      <trkpt lat="44.77313" lon="1.32499">
        <ele>121.341</ele>
        <time>2019-12-01T13:15:01Z</time>
      </trkpt>
      <trkpt lat="44.77464" lon="1.32486">
        <ele>108.381</ele>
        <time>2019-12-01T13:15:21Z</time>
      </trkpt>
      <trkpt lat="44.7748" lon="1.3255">
        <ele>105.609</ele>
        <time>2019-12-01T13:15:41Z</time>
      </trkpt>
      <trkpt lat="44.77504" lon="1.32579">
        <ele>106.408</ele>
        <time>2019-12-01T13:16:01Z</time>
      </trkpt>
      <trkpt lat="44.77532" lon="1.32556">
        <ele>107.548</ele>
        <time>2019-12-01T13:16:21Z</time>
      </trkpt>
      <trkpt lat="44.77544" lon="1.32563">
        <ele>108.148</ele>
        <time>2019-12-01T13:16:41Z</time>
      </trkpt>
      <trkpt lat="44.77738" lon="1.32376">
        <ele>108.864</ele>
        <time>2019-12-01T13:17:01Z</time>
      </trkpt>
      <trkpt lat="44.78005" lon="1.322">
        <ele>104.887</ele>
        <time>2019-12-01T13:17:21Z</time>
      </trkpt>
      <trkpt lat="44.77982" lon="1.32132">
        <ele>99.384</ele>
        <time>2019-12-01T13:17:41Z</time>
      </trkpt>
      <trkpt lat="44.77906" lon="1.32075">
        <ele>103.692</ele>
        <time>2019-12-01T13:18:01Z</time>
      </trkpt>
      <trkpt lat="44.77951" lon="1.32044">
        <ele>102.432</ele>
        <time>2019-12-01T13:18:21Z</time>
      </trkpt>
      <trkpt lat="44.78004" lon="1.31937">
        <ele>103.364</ele>
        <time>2019-12-01T13:18:41Z</time>
      </trkpt>
      <trkpt lat="44.78055" lon="1.31805">
        <ele>105.054</ele>
        <time>2019-12-01T13:19:01Z</time>
      </trkpt>
      <trkpt lat="44.78102" lon="1.31736">
        <ele>100.756</ele>
        <time>2019-12-01T13:19:21Z</time>
      </trkpt>
      <trkpt lat="44.78137" lon="1.3167">
        <ele>99.811</ele>
        <time>2019-12-01T13:19:41Z</time>
      </trkpt>
      <trkpt lat="44.7818" lon="1.31678">
        <ele>98.608</ele>
        <time>2019-12-01T13:20:01Z</time>
      </trkpt>
      <trkpt lat="44.78272" lon="1.31528">
        <ele>105.319</ele>
        <time>2019-12-01T13:20:21Z</time>
      </trkpt>
      <trkpt lat="44.78317" lon="1.31415">
        <ele>102.839</ele>
        <time>2019-12-01T13:20:41Z</time>
      </trkpt>
      <trkpt lat="44.78355" lon="1.31343">
        <ele>104.535</ele>
        <time>2019-12-01T13:21:01Z</time>
      </trkpt>
      <trkpt lat="44.78402" lon="1.31312">
        <ele>109.968</ele>
        <time>2019-12-01T13:21:21Z</time>
      </trkpt>
      <trkpt lat="44.78467" lon="1.31244">
        <ele>113.795</ele>
        <time>2019-12-01T13:21:41Z</time>
      </trkpt>
      <trkpt lat="44.78503" lon="1.31195">
        <ele>109.993</ele>
        <time>2019-12-01T13:22:01Z</time>
      </trkpt>
      <trkpt lat="44.78559" lon="1.31156">
        <ele>115.723</ele>
        <time>2019-12-01T13:22:21Z</time>
      </trkpt>
      <trkpt lat="44.78595" lon="1.31154">
        <ele>111.185</ele>
        <time>2019-12-01T13:22:41Z</time>
      </trkpt>
      <trkpt lat="44.78649" lon="1.31159">
        <ele>109.242</ele>
        <time>2019-12-01T13:23:01Z</time>
      </trkpt>
      <trkpt lat="44.78768" lon="1.31145">
        <ele>101.622</ele>
        <time>2019-12-01T13:23:21Z</time>
      </trkpt>
      <trkpt lat="44.78794" lon="1.31133">
        <ele>100.714</ele>
        <time>2019-12-01T13:23:41Z</time>
      </trkpt>
      <trkpt lat="44.78819" lon="1.31214">
        <ele>102.908</ele>
        <time>2019-12-01T13:24:01Z</time>
      </trkpt>
      <trkpt lat="44.78928" lon="1.31182">
        <ele>97.398</ele>
        <time>2019-12-01T13:24:21Z</time>
      </trkpt>
      <trkpt lat="44.78974" lon="1.31206">
        <ele>99.258</ele>
        <time>2019-12-01T13:24:41Z</time>
      </trkpt>
      <trkpt lat="44.79135" lon="1.31255">
        <ele>108.284</ele>
        <time>2019-12-01T13:25:01Z</time>
      </trkpt>
      <trkpt lat="44.79163" lon="1.31294">
        <ele>109.127</ele>
        <time>2019-12-01T13:25:21Z</time>
      </trkpt>
      <trkpt lat="44.7922" lon="1.31307">
        <ele>101.874</ele>
        <time>2019-12-01T13:25:41Z</time>
      </trkpt>
      <trkpt lat="44.79226" lon="1.31263">
        <ele>100.412</ele>
        <time>2019-12-01T13:26:01Z</time>
      </trkpt>
      <trkpt lat="44.79248" lon="1.31242">
        <ele>96.882</ele>
        <time>2019-12-01T13:26:21Z</time>
      </trkpt>
      <trkpt lat="44.79425" lon="1.31151">
        <ele>92.964</ele>
        <time>2019-12-01T13:26:41Z</time>
      </trkpt>
      <trkpt lat="44.7951" lon="1.31127">
        <ele>101.016</ele>
        <time>2019-12-01T13:27:01Z</time>
      </trkpt>
      <trkpt lat="44.79565" lon="1.31065">
        <ele>99.676</ele>
        <time>2019-12-01T13:27:21Z</time>
      </trkpt>
      <trkpt lat="44.79745" lon="1.31003">
        <ele>115.713</ele>
        <time>2019-12-01T13:27:41Z</time>
      </trkpt>
      <trkpt lat="44.79801" lon="1.30975">
        <ele>121.708</ele>
        <time>2019-12-01T13:28:01Z</time>
      </trkpt>
      <trkpt lat="44.79846" lon="1.30904">
        <ele>128.615</ele>
        <time>2019-12-01T13:28:21Z</time>
      </trkpt>
      <trkpt lat="44.7991" lon="1.30798">
        <ele>128.515</ele>
        <time>2019-12-01T13:28:41Z</time>
      </trkpt>
      <trkpt lat="44.79971" lon="1.30745">
        <ele>117.781</ele>
        <time>2019-12-01T13:29:01Z</time>
      </trkpt>
      <trkpt lat="44.80017" lon="1.30727">
        <ele>119.244</ele>
        <time>2019-12-01T13:29:21Z</time>
      </trkpt>
      <trkpt lat="44.80057" lon="1.30727">
        <ele>120.431</ele>
        <time>2019-12-01T13:29:41Z</time>
      </trkpt>
      <trkpt lat="44.80136" lon="1.30688">
        <ele>119.129</ele>
        <time>2019-12-01T13:30:01Z</time>
      </trkpt>
      <trkpt lat="44.80219" lon="1.30676">
        <ele>120.689</ele>
        <time>2019-12-01T13:30:21Z</time>
      </trkpt>
      <trkpt lat="44.80262" lon="1.30686">
        <ele>124.941</ele>
        <time>2019-12-01T13:30:41Z</time>
      </trkpt>
      <trkpt lat="44.80281" lon="1.3066">
        <ele>116.791</ele>
        <time>2019-12-01T13:31:01Z</time>
      </trkpt>
      <trkpt lat="44.80348" lon="1.30436">
        <ele>110.581</ele>
        <time>2019-12-01T13:31:21Z</time>
      </trkpt>
      <trkpt lat="44.80422" lon="1.30105">
        <ele>99.819</ele>
        <time>2019-12-01T13:31:41Z</time>
      </trkpt>
      <trkpt lat="44.80412" lon="1.3007">
        <ele>88.708</ele>
        <time>2019-12-01T13:32:01Z</time>
      </trkpt>
      <trkpt lat="44.8051" lon="1.29855">
        <ele>95.723</ele>
        <time>2019-12-01T13:32:21Z</time>
      </trkpt>
      <trkpt lat="44.80581" lon="1.29743">
        <ele>90.283</ele>
        <time>2019-12-01T13:32:41Z</time>
      </trkpt>
      <trkpt lat="44.8063" lon="1.29718">
        <ele>91.539</ele>
        <time>2019-12-01T13:33:01Z</time>
      </trkpt>
      <trkpt lat="44.80671" lon="1.29722">
        <ele>93.142</ele>
        <time>2019-12-01T13:33:21Z</time>
      </trkpt>
      <trkpt lat="44.80727" lon="1.29744">
        <ele>92.929</ele>
        <time>2019-12-01T13:33:41Z</time>
      </trkpt>
      <trkpt lat="44.80703" lon="1.29536">
        <ele>94.247</ele>
        <time>2019-12-01T13:34:01Z</time>
      </trkpt>
      <trkpt lat="44.8073" lon="1.29447">
        <ele>97.497</ele>
        <time>2019-12-01T13:34:21Z</time>
      </trkpt>
      <trkpt lat="44.80735" lon="1.29339">
        <ele>101.459</ele>
        <time>2019-12-01T13:34:41Z</time>
      </trkpt>
      <trkpt lat="44.80734" lon="1.2934">
        <ele>101</ele>
      </trkpt>
      <trkpt lat="44.80732" lon="1.29333">
        <ele>103.3</ele>
      </trkpt>
      <trkpt lat="44.80727" lon="1.29323">
        <ele>103.7</ele>
      </trkpt>
      <trkpt lat="44.80718" lon="1.29315">
        <ele>104</ele>
      </trkpt>
      <trkpt lat="44.80707" lon="1.29307">
        <ele>104.2</ele>
      </trkpt>
      <trkpt lat="44.80692" lon="1.29299">
        <ele>104.3</ele>
      </trkpt>
      <trkpt lat="44.80678" lon="1.29291">
        <ele>104.3</ele>
      </trkpt>
      <trkpt lat="44.80671" lon="1.29285">
        <ele>104.3</ele>
      </trkpt>
      <trkpt lat="44.80661" lon="1.29278">
        <ele>103.7</ele>
      </trkpt>
      <trkpt lat="44.80667" lon="1.29263">
        <ele>103.8</ele>
      </trkpt>
      <trkpt lat="44.80674" lon="1.2925">
        <ele>104.2</ele>
      </trkpt>
      <trkpt lat="44.80686" lon="1.2924">
        <ele>109.3</ele>
      </trkpt>
      <trkpt lat="44.80699" lon="1.29238">
        <ele>110.5</ele>
      </trkpt>
      <trkpt lat="44.80711" lon="1.29245">
        <ele>110.7</ele>
      </trkpt>
      <trkpt lat="44.80728" lon="1.29258">
        <ele>105.8</ele>
      </trkpt>
      <trkpt lat="44.80737" lon="1.2926">
        <ele>106.2</ele>
      </trkpt>
      <trkpt lat="44.80742" lon="1.2926">
        <ele>106.5</ele>
      </trkpt>
      <trkpt lat="44.80743" lon="1.2926">
        <ele>106.6</ele>
      </trkpt>
      <trkpt lat="44.80747" lon="1.29261">
        <ele>106.7</ele>
      </trkpt>
      <trkpt lat="44.80751" lon="1.29263">
        <ele>109.2</ele>
      </trkpt>
      <trkpt lat="44.8076" lon="1.29276">
        <ele>109.7</ele>
      </trkpt>
      <trkpt lat="44.80767" lon="1.29285">
        <ele>109.9</ele>
      </trkpt>
      <trkpt lat="44.80774" lon="1.29295">
        <ele>109.8</ele>
      </trkpt>
      <trkpt lat="44.8078" lon="1.29301">
        <ele>109.9</ele>
      </trkpt>
      <trkpt lat="44.80792" lon="1.29307">
        <ele>110.6</ele>
      </trkpt>
      <trkpt lat="44.80811" lon="1.29314">
        <ele>111.5</ele>
      </trkpt>
      <trkpt lat="44.80828" lon="1.29318">
        <ele>112</ele>
      </trkpt>
      <trkpt lat="44.80837" lon="1.29319">
        <ele>114.5</ele>
      </trkpt>
      <trkpt lat="44.80847" lon="1.29325">
        <ele>114.5</ele>
      </trkpt>
      <trkpt lat="44.80853" lon="1.29318">
        <ele>115.4</ele>
      </trkpt>
      <trkpt lat="44.80858" lon="1.29314">
        <ele>115.8</ele>
      </trkpt>
      <trkpt lat="44.80868" lon="1.29307">
        <ele>116.4</ele>
      </trkpt>
      <trkpt lat="44.80885" lon="1.29301">
        <ele>116.8</ele>
      </trkpt>
      <trkpt lat="44.80904" lon="1.29293">
        <ele>117.3</ele>
      </trkpt>
      <trkpt lat="44.80935" lon="1.29281">
        <ele>115.6</ele>
      </trkpt>
      <trkpt lat="44.80946" lon="1.29276">
        <ele>115.4</ele>
      </trkpt>
      <trkpt lat="44.80959" lon="1.2927">
        <ele>114.8</ele>
      </trkpt>
      <trkpt lat="44.80972" lon="1.29264">
        <ele>114.3</ele>
      </trkpt>
      <trkpt lat="44.80983" lon="1.29257">
        <ele>114.1</ele>
      </trkpt>
      <trkpt lat="44.80996" lon="1.29245">
        <ele>116.1</ele>
      </trkpt>
      <trkpt lat="44.81011" lon="1.29226">
        <ele>114.5</ele>
      </trkpt>
      <trkpt lat="44.8102" lon="1.29216">
        <ele>114.8</ele>
      </trkpt>
      <trkpt lat="44.81033" lon="1.29203">
        <ele>114.9</ele>
      </trkpt>
      <trkpt lat="44.81051" lon="1.29187">
        <ele>114.5</ele>
      </trkpt>
      <trkpt lat="44.81067" lon="1.29176">
        <ele>113.9</ele>
      </trkpt>
      <trkpt lat="44.81082" lon="1.29167">
        <ele>113.4</ele>
      </trkpt>
      <trkpt lat="44.81097" lon="1.29156">
        <ele>113</ele>
      </trkpt>
      <trkpt lat="44.81114" lon="1.29144">
        <ele>112.8</ele>
      </trkpt>
      <trkpt lat="44.8113" lon="1.29134">
        <ele>112.4</ele>
      </trkpt>
      <trkpt lat="44.81148" lon="1.29126">
        <ele>111.9</ele>
      </trkpt>
      <trkpt lat="44.81169" lon="1.29116">
        <ele>109.6</ele>
      </trkpt>
      <trkpt lat="44.81183" lon="1.29111">
        <ele>109.8</ele>
      </trkpt>
      <trkpt lat="44.81193" lon="1.29108">
        <ele>109.8</ele>
      </trkpt>
      <trkpt lat="44.81204" lon="1.29106">
        <ele>109.8</ele>
      </trkpt>
      <trkpt lat="44.81222" lon="1.29103">
        <ele>109.8</ele>
      </trkpt>
      <trkpt lat="44.81239" lon="1.291">
        <ele>110.1</ele>
      </trkpt>
      <trkpt lat="44.81253" lon="1.29098">
        <ele>109.3</ele>
      </trkpt>
      <trkpt lat="44.81267" lon="1.29097">
        <ele>108.8</ele>
      </trkpt>
      <trkpt lat="44.81279" lon="1.29094">
        <ele>108.3</ele>
      </trkpt>
      <trkpt lat="44.81284" lon="1.29092">
        <ele>108.1</ele>
      </trkpt>
      <trkpt lat="44.81293" lon="1.29086">
        <ele>107.8</ele>
      </trkpt>
      <trkpt lat="44.81303" lon="1.29079">
        <ele>110.4</ele>
      </trkpt>
      <trkpt lat="44.81314" lon="1.29067">
        <ele>110.2</ele>
      </trkpt>
      <trkpt lat="44.81322" lon="1.29061">
        <ele>110.2</ele>
      </trkpt>
      <trkpt lat="44.81326" lon="1.29059">
        <ele>110.2</ele>
      </trkpt>
      <trkpt lat="44.81335" lon="1.29056">
        <ele>107.7</ele>
      </trkpt>
      <trkpt lat="44.81344" lon="1.29056">
        <ele>107.7</ele>
      </trkpt>
      <trkpt lat="44.81361" lon="1.29056">
        <ele>107.4</ele>
      </trkpt>
      <trkpt lat="44.81375" lon="1.29055">
        <ele>107.2</ele>
      </trkpt>
      <trkpt lat="44.81385" lon="1.29054">
        <ele>107</ele>
      </trkpt>
      <trkpt lat="44.81406" lon="1.29051">
        <ele>106.6</ele>
      </trkpt>
      <trkpt lat="44.81424" lon="1.29049">
        <ele>104.2</ele>
      </trkpt>
      <trkpt lat="44.81446" lon="1.29049">
        <ele>103.9</ele>
      </trkpt>
      <trkpt lat="44.81463" lon="1.29051">
        <ele>103.4</ele>
      </trkpt>
      <trkpt lat="44.81482" lon="1.29056">
        <ele>102.8</ele>
      </trkpt>
      <trkpt lat="44.81492" lon="1.2906">
        <ele>102.3</ele>
      </trkpt>
      <trkpt lat="44.81507" lon="1.29068">
        <ele>100.7</ele>
      </trkpt>
      <trkpt lat="44.81526" lon="1.29076">
        <ele>100.8</ele>
      </trkpt>
      <trkpt lat="44.81537" lon="1.29081">
        <ele>100.8</ele>
      </trkpt>
      <trkpt lat="44.81555" lon="1.29086">
        <ele>98.9</ele>
      </trkpt>
      <trkpt lat="44.81577" lon="1.29093">
        <ele>99.3</ele>
      </trkpt>
      <trkpt lat="44.81597" lon="1.29102">
        <ele>98.5</ele>
      </trkpt>
      <trkpt lat="44.81607" lon="1.29106">
        <ele>98.1</ele>
      </trkpt>
      <trkpt lat="44.81622" lon="1.29111">
        <ele>97.7</ele>
      </trkpt>
      <trkpt lat="44.81644" lon="1.29115">
        <ele>97.2</ele>
      </trkpt>
      <trkpt lat="44.81648" lon="1.29115">
        <ele>97.1</ele>
      </trkpt>
      <trkpt lat="44.81654" lon="1.29112">
        <ele>97</ele>
      </trkpt>
      <trkpt lat="44.81661" lon="1.29108">
        <ele>96.9</ele>
      </trkpt>
      <trkpt lat="44.81668" lon="1.29102">
        <ele>94.2</ele>
      </trkpt>
      <trkpt lat="44.81684" lon="1.29084">
        <ele>94.1</ele>
      </trkpt>
      <trkpt lat="44.81709" lon="1.29059">
        <ele>95.7</ele>
      </trkpt>
      <trkpt lat="44.81722" lon="1.29042">
        <ele>96.2</ele>
      </trkpt>
      <trkpt lat="44.8173" lon="1.29028">
        <ele>97</ele>
      </trkpt>
      <trkpt lat="44.81741" lon="1.29045">
        <ele>95.9</ele>
      </trkpt>
      <trkpt lat="44.81752" lon="1.29063">
        <ele>91.7</ele>
      </trkpt>
      <trkpt lat="44.8176" lon="1.29076">
        <ele>91.2</ele>
      </trkpt>
      <trkpt lat="44.81761" lon="1.29082">
        <ele>91.1</ele>
      </trkpt>
      <trkpt lat="44.81763" lon="1.29088">
        <ele>88.5</ele>
      </trkpt>
      <trkpt lat="44.81775" lon="1.29105">
        <ele>86.5</ele>
      </trkpt>
      <trkpt lat="44.81789" lon="1.29126">
        <ele>85.3</ele>
      </trkpt>
      <trkpt lat="44.81797" lon="1.29145">
        <ele>84.8</ele>
      </trkpt>
      <trkpt lat="44.81801" lon="1.29163">
        <ele>84.5</ele>
      </trkpt>
      <trkpt lat="44.81804" lon="1.29176">
        <ele>84</ele>
      </trkpt>
      <trkpt lat="44.81806" lon="1.29191">
        <ele>84</ele>
      </trkpt>
      <trkpt lat="44.81808" lon="1.29198">
        <ele>84</ele>
      </trkpt>
      <trkpt lat="44.81801" lon="1.29192">
        <ele>84.1</ele>
      </trkpt>
      <trkpt lat="44.81786" lon="1.29172">
        <ele>84.3</ele>
      </trkpt>
      <trkpt lat="44.81772" lon="1.29152">
        <ele>85.2</ele>
      </trkpt>
      <trkpt lat="44.81786" lon="1.29172">
        <ele>84</ele>
      </trkpt>
      <trkpt lat="44.81801" lon="1.29192">
        <ele>84</ele>
      </trkpt>
      <trkpt lat="44.81808" lon="1.29198">
        <ele>84</ele>
      </trkpt>
      <trkpt lat="44.81806" lon="1.29191">
        <ele>84</ele>
      </trkpt>
      <trkpt lat="44.81804" lon="1.29176">
        <ele>84</ele>
      </trkpt>
      <trkpt lat="44.81801" lon="1.29163">
        <ele>85</ele>
      </trkpt>
      <trkpt lat="44.81797" lon="1.29145">
        <ele>85</ele>
      </trkpt>
      <trkpt lat="44.81789" lon="1.29126">
        <ele>85</ele>
      </trkpt>
      <trkpt lat="44.81775" lon="1.29105">
        <ele>86</ele>
      </trkpt>
      <trkpt lat="44.81763" lon="1.29088">
        <ele>88</ele>
      </trkpt>
      <trkpt lat="44.81761" lon="1.29082">
        <ele>91</ele>
      </trkpt>
      <trkpt lat="44.8176" lon="1.29076">
        <ele>91</ele>
      </trkpt>
      <trkpt lat="44.81762" lon="1.29072">
        <ele>91.2</ele>
      </trkpt>
      <trkpt lat="44.81765" lon="1.29068">
        <ele>91.3</ele>
      </trkpt>
      <trkpt lat="44.81773" lon="1.29065">
        <ele>91.2</ele>
      </trkpt>
      <trkpt lat="44.81787" lon="1.29062">
        <ele>90.6</ele>
      </trkpt>
      <trkpt lat="44.81805" lon="1.29057">
        <ele>89.7</ele>
      </trkpt>
      <trkpt lat="44.81817" lon="1.29049">
        <ele>89.7</ele>
      </trkpt>
      <trkpt lat="44.81827" lon="1.29037">
        <ele>90.3</ele>
      </trkpt>
      <trkpt lat="44.81835" lon="1.29024">
        <ele>86.5</ele>
      </trkpt>
      <trkpt lat="44.81842" lon="1.29012">
        <ele>87.9</ele>
      </trkpt>
      <trkpt lat="44.81853" lon="1.28989">
        <ele>91.1</ele>
      </trkpt>
      <trkpt lat="44.81864" lon="1.28967">
        <ele>91.2</ele>
      </trkpt>
      <trkpt lat="44.81876" lon="1.28948">
        <ele>91.6</ele>
      </trkpt>
      <trkpt lat="44.8189" lon="1.28933">
        <ele>91.2</ele>
      </trkpt>
      <trkpt lat="44.81904" lon="1.2892">
        <ele>90.6</ele>
      </trkpt>
      <trkpt lat="44.81913" lon="1.28913">
        <ele>93.4</ele>
      </trkpt>
      <trkpt lat="44.81928" lon="1.289">
        <ele>92.5</ele>
      </trkpt>
      <trkpt lat="44.81947" lon="1.28882">
        <ele>93.8</ele>
      </trkpt>
      <trkpt lat="44.81967" lon="1.28859">
        <ele>94</ele>
      </trkpt>
      <trkpt lat="44.81977" lon="1.28843">
        <ele>93.4</ele>
      </trkpt>
      <trkpt lat="44.81986" lon="1.28825">
        <ele>99</ele>
      </trkpt>
      <trkpt lat="44.82004" lon="1.28796">
        <ele>90.2</ele>
      </trkpt>
      <trkpt lat="44.82016" lon="1.28775">
        <ele>91.5</ele>
      </trkpt>
      <trkpt lat="44.82028" lon="1.28752">
        <ele>91.6</ele>
      </trkpt>
      <trkpt lat="44.82033" lon="1.28737">
        <ele>95.1</ele>
      </trkpt>
      <trkpt lat="44.82039" lon="1.28717">
        <ele>94.9</ele>
      </trkpt>
      <trkpt lat="44.82045" lon="1.28684">
        <ele>95.5</ele>
      </trkpt>
      <trkpt lat="44.8205" lon="1.28659">
        <ele>99.2</ele>
      </trkpt>
      <trkpt lat="44.82055" lon="1.28635">
        <ele>99.7</ele>
      </trkpt>
      <trkpt lat="44.82057" lon="1.28626">
        <ele>99.8</ele>
      </trkpt>
      <trkpt lat="44.82057" lon="1.28608">
        <ele>100.1</ele>
      </trkpt>
      <trkpt lat="44.82058" lon="1.2859">
        <ele>99.6</ele>
      </trkpt>
      <trkpt lat="44.82064" lon="1.28566">
        <ele>103.7</ele>
      </trkpt>
      <trkpt lat="44.82073" lon="1.28548">
        <ele>104.8</ele>
      </trkpt>
      <trkpt lat="44.82074" lon="1.28546">
        <ele>104.9</ele>
      </trkpt>
      <trkpt lat="44.82086" lon="1.28525">
        <ele>97.2</ele>
      </trkpt>
      <trkpt lat="44.82102" lon="1.28502">
        <ele>97.8</ele>
      </trkpt>
      <trkpt lat="44.8213" lon="1.28469">
        <ele>98.2</ele>
      </trkpt>
      <trkpt lat="44.8216" lon="1.28438">
        <ele>96.9</ele>
      </trkpt>
      <trkpt lat="44.82174" lon="1.28425">
        <ele>94.2</ele>
      </trkpt>
      <trkpt lat="44.82197" lon="1.28409">
        <ele>93.7</ele>
      </trkpt>
      <trkpt lat="44.82227" lon="1.28392">
        <ele>92.5</ele>
      </trkpt>
      <trkpt lat="44.82269" lon="1.28374">
        <ele>87.4</ele>
      </trkpt>
      <trkpt lat="44.82309" lon="1.28362">
        <ele>85.9</ele>
      </trkpt>
      <trkpt lat="44.82322" lon="1.28356">
        <ele>85.4</ele>
      </trkpt>
      <trkpt lat="44.82381" lon="1.28338">
        <ele>79.8</ele>
      </trkpt>
      <trkpt lat="44.82478" lon="1.28307">
        <ele>78</ele>
      </trkpt>
      <trkpt lat="44.82484" lon="1.28305">
        <ele>78.1</ele>
      </trkpt>
      <trkpt lat="44.82528" lon="1.28287">
        <ele>78.9</ele>
      </trkpt>
      <trkpt lat="44.82536" lon="1.28284">
        <ele>79</ele>
      </trkpt>
      <trkpt lat="44.82566" lon="1.28273">
        <ele>79.3</ele>
      </trkpt>
      <trkpt lat="44.8259" lon="1.28258">
        <ele>79.7</ele>
      </trkpt>
      <trkpt lat="44.8262" lon="1.28235">
        <ele>79.8</ele>
      </trkpt>
      <trkpt lat="44.82651" lon="1.28209">
        <ele>80</ele>
      </trkpt>
      <trkpt lat="44.82673" lon="1.28189">
        <ele>82</ele>
      </trkpt>
      <trkpt lat="44.82694" lon="1.28165">
        <ele>83.3</ele>
      </trkpt>
      <trkpt lat="44.82719" lon="1.2813">
        <ele>84.8</ele>
      </trkpt>
      <trkpt lat="44.82737" lon="1.281">
        <ele>87</ele>
      </trkpt>
      <trkpt lat="44.82747" lon="1.28081">
        <ele>90.1</ele>
      </trkpt>
      <trkpt lat="44.82756" lon="1.28066">
        <ele>94.5</ele>
      </trkpt>
      <trkpt lat="44.82762" lon="1.28051">
        <ele>95.8</ele>
      </trkpt>
      <trkpt lat="44.82765" lon="1.28044">
        <ele>96</ele>
      </trkpt>
      <trkpt lat="44.82772" lon="1.28027">
        <ele>96.2</ele>
      </trkpt>
      <trkpt lat="44.82785" lon="1.27988">
        <ele>96.4</ele>
      </trkpt>
      <trkpt lat="44.82797" lon="1.27962">
        <ele>97.5</ele>
      </trkpt>
      <trkpt lat="44.82813" lon="1.27933">
        <ele>99</ele>
      </trkpt>
      <trkpt lat="44.82828" lon="1.27905">
        <ele>100</ele>
      </trkpt>
      <trkpt lat="44.82833" lon="1.27896">
        <ele>99.2</ele>
      </trkpt>
      <trkpt lat="44.82843" lon="1.27874">
        <ele>103.3</ele>
      </trkpt>
      <trkpt lat="44.82857" lon="1.27843">
        <ele>102.8</ele>
      </trkpt>
      <trkpt lat="44.82862" lon="1.27835">
        <ele>103</ele>
      </trkpt>
      <trkpt lat="44.82858" lon="1.27849">
        <ele>103</ele>
      </trkpt>
      <trkpt lat="44.82849" lon="1.27876">
        <ele>103.5</ele>
      </trkpt>
      <trkpt lat="44.82844" lon="1.27895">
        <ele>103.6</ele>
      </trkpt>
      <trkpt lat="44.8284" lon="1.2791">
        <ele>103.4</ele>
      </trkpt>
      <trkpt lat="44.82834" lon="1.27935">
        <ele>104.7</ele>
      </trkpt>
      <trkpt lat="44.82825" lon="1.27979">
        <ele>100.5</ele>
      </trkpt>
      <trkpt lat="44.82819" lon="1.28014">
        <ele>101.3</ele>
      </trkpt>
      <trkpt lat="44.82815" lon="1.28043">
        <ele>100.3</ele>
      </trkpt>
      <trkpt lat="44.82819" lon="1.28032">
        <ele>100.5</ele>
      </trkpt>
      <trkpt lat="44.82824" lon="1.28022">
        <ele>101.3</ele>
      </trkpt>
      <trkpt lat="44.8283" lon="1.28011">
        <ele>102.6</ele>
      </trkpt>
      <trkpt lat="44.82833" lon="1.28005">
        <ele>103.9</ele>
      </trkpt>
      <trkpt lat="44.82836" lon="1.27999">
        <ele>105.2</ele>
      </trkpt>
      <trkpt lat="44.8284" lon="1.2799">
        <ele>105.6</ele>
      </trkpt>
      <trkpt lat="44.82846" lon="1.2798">
        <ele>105.8</ele>
      </trkpt>
      <trkpt lat="44.82852" lon="1.27969">
        <ele>106</ele>
      </trkpt>
      <trkpt lat="44.82858" lon="1.27959">
        <ele>106</ele>
      </trkpt>
      <trkpt lat="44.82863" lon="1.27948">
        <ele>106</ele>
      </trkpt>
      <trkpt lat="44.82869" lon="1.27939">
        <ele>106.1</ele>
      </trkpt>
      <trkpt lat="44.82874" lon="1.27929">
        <ele>106.2</ele>
      </trkpt>
      <trkpt lat="44.82899" lon="1.27882">
        <ele>105.1</ele>
      </trkpt>
      <trkpt lat="44.82922" lon="1.27841">
        <ele>106.6</ele>
      </trkpt>
      <trkpt lat="44.82898" lon="1.27817">
        <ele>103.7</ele>
      </trkpt>
      <trkpt lat="44.82891" lon="1.27811">
        <ele>103.3</ele>
      </trkpt>
      <trkpt lat="44.82878" lon="1.27799">
        <ele>102.7</ele>
      </trkpt>
      <trkpt lat="44.82871" lon="1.27793">
        <ele>102.4</ele>
      </trkpt>
      <trkpt lat="44.82853" lon="1.27777">
        <ele>101.8</ele>
      </trkpt>
      <trkpt lat="44.82836" lon="1.27763">
        <ele>100.9</ele>
      </trkpt>
      <trkpt lat="44.82834" lon="1.27761">
        <ele>100.8</ele>
      </trkpt>
      <trkpt lat="44.82828" lon="1.27755">
        <ele>98.9</ele>
      </trkpt>
      <trkpt lat="44.82823" lon="1.27749">
        <ele>98.6</ele>
      </trkpt>
      <trkpt lat="44.82816" lon="1.27763">
        <ele>97.6</ele>
      </trkpt>
      <trkpt lat="44.82776" lon="1.27797">
        <ele>94.9</ele>
      </trkpt>
      <trkpt lat="44.82784" lon="1.27823">
        <ele>94.9</ele>
      </trkpt>
      <trkpt lat="44.82787" lon="1.27834">
        <ele>95</ele>
      </trkpt>
      <trkpt lat="44.82789" lon="1.27855">
        <ele>95.3</ele>
      </trkpt>
      <trkpt lat="44.82789" lon="1.27865">
        <ele>95.5</ele>
      </trkpt>
      <trkpt lat="44.82788" lon="1.2788">
        <ele>95.6</ele>
      </trkpt>
      <trkpt lat="44.82786" lon="1.27896">
        <ele>95.4</ele>
      </trkpt>
      <trkpt lat="44.82782" lon="1.27912">
        <ele>94.9</ele>
      </trkpt>
      <trkpt lat="44.82779" lon="1.27925">
        <ele>95.3</ele>
      </trkpt>
      <trkpt lat="44.82773" lon="1.27944">
        <ele>95.2</ele>
      </trkpt>
      <trkpt lat="44.82769" lon="1.27952">
        <ele>95.2</ele>
      </trkpt>
      <trkpt lat="44.82773" lon="1.27944">
        <ele>95</ele>
      </trkpt>
      <trkpt lat="44.82779" lon="1.27925">
        <ele>95</ele>
      </trkpt>
      <trkpt lat="44.82782" lon="1.27912">
        <ele>95</ele>
      </trkpt>
      <trkpt lat="44.82786" lon="1.27896">
        <ele>95</ele>
      </trkpt>
      <trkpt lat="44.82788" lon="1.2788">
        <ele>96</ele>
      </trkpt>
      <trkpt lat="44.82789" lon="1.27865">
        <ele>95</ele>
      </trkpt>
      <trkpt lat="44.82789" lon="1.27855">
        <ele>95</ele>
      </trkpt>
      <trkpt lat="44.82787" lon="1.27834">
        <ele>95</ele>
      </trkpt>
      <trkpt lat="44.82784" lon="1.27823">
        <ele>95</ele>
      </trkpt>
      <trkpt lat="44.82776" lon="1.27797">
        <ele>95</ele>
      </trkpt>
      <trkpt lat="44.82816" lon="1.27763">
        <ele>98</ele>
      </trkpt>
      <trkpt lat="44.82823" lon="1.27749">
        <ele>99</ele>
      </trkpt>
      <trkpt lat="44.82828" lon="1.27755">
        <ele>99</ele>
      </trkpt>
      <trkpt lat="44.82834" lon="1.27761">
        <ele>101</ele>
      </trkpt>
      <trkpt lat="44.82836" lon="1.27763">
        <ele>101</ele>
      </trkpt>
      <trkpt lat="44.82853" lon="1.27777">
        <ele>102</ele>
      </trkpt>
      <trkpt lat="44.82871" lon="1.27793">
        <ele>102</ele>
      </trkpt>
      <trkpt lat="44.82878" lon="1.27799">
        <ele>103</ele>
      </trkpt>
      <trkpt lat="44.82891" lon="1.27811">
        <ele>103</ele>
      </trkpt>
      <trkpt lat="44.82898" lon="1.27817">
        <ele>104</ele>
      </trkpt>
      <trkpt lat="44.82922" lon="1.27841">
        <ele>107</ele>
      </trkpt>
      <trkpt lat="44.82899" lon="1.27882">
        <ele>105</ele>
      </trkpt>
      <trkpt lat="44.82874" lon="1.27929">
        <ele>106</ele>
      </trkpt>
      <trkpt lat="44.82869" lon="1.27939">
        <ele>106</ele>
      </trkpt>
      <trkpt lat="44.82863" lon="1.27948">
        <ele>106</ele>
      </trkpt>
      <trkpt lat="44.82858" lon="1.27959">
        <ele>106</ele>
      </trkpt>
      <trkpt lat="44.82852" lon="1.27969">
        <ele>106</ele>
      </trkpt>
      <trkpt lat="44.82846" lon="1.2798">
        <ele>106</ele>
      </trkpt>
      <trkpt lat="44.8284" lon="1.2799">
        <ele>106</ele>
      </trkpt>
      <trkpt lat="44.82836" lon="1.27999">
        <ele>105</ele>
      </trkpt>
      <trkpt lat="44.82833" lon="1.28005">
        <ele>104</ele>
      </trkpt>
      <trkpt lat="44.8283" lon="1.28011">
        <ele>103</ele>
      </trkpt>
      <trkpt lat="44.82824" lon="1.28022">
        <ele>101</ele>
      </trkpt>
      <trkpt lat="44.82819" lon="1.28032">
        <ele>101</ele>
      </trkpt>
      <trkpt lat="44.82815" lon="1.28043">
        <ele>100</ele>
      </trkpt>
      <trkpt lat="44.82814" lon="1.28046">
        <ele>100.3</ele>
      </trkpt>
      <trkpt lat="44.82811" lon="1.28055">
        <ele>100.3</ele>
      </trkpt>
      <trkpt lat="44.82807" lon="1.28066">
        <ele>100.4</ele>
      </trkpt>
      <trkpt lat="44.82804" lon="1.28077">
        <ele>100.3</ele>
      </trkpt>
      <trkpt lat="44.82803" lon="1.28081">
        <ele>100.2</ele>
      </trkpt>
      <trkpt lat="44.82802" lon="1.28087">
        <ele>100.7</ele>
      </trkpt>
      <trkpt lat="44.828" lon="1.28096">
        <ele>100.3</ele>
      </trkpt>
      <trkpt lat="44.82798" lon="1.28109">
        <ele>99.9</ele>
      </trkpt>
      <trkpt lat="44.82796" lon="1.28121">
        <ele>99.7</ele>
      </trkpt>
      <trkpt lat="44.82794" lon="1.28133">
        <ele>99.6</ele>
      </trkpt>
      <trkpt lat="44.82793" lon="1.28148">
        <ele>99.6</ele>
      </trkpt>
      <trkpt lat="44.82793" lon="1.28156">
        <ele>99.6</ele>
      </trkpt>
      <trkpt lat="44.82793" lon="1.28169">
        <ele>98.8</ele>
      </trkpt>
      <trkpt lat="44.82793" lon="1.28182">
        <ele>98.7</ele>
      </trkpt>
      <trkpt lat="44.82793" lon="1.28197">
        <ele>98.5</ele>
      </trkpt>
      <trkpt lat="44.82794" lon="1.28228">
        <ele>98.2</ele>
      </trkpt>
      <trkpt lat="44.82796" lon="1.28297">
        <ele>94.4</ele>
      </trkpt>
      <trkpt lat="44.82799" lon="1.28369">
        <ele>89.9</ele>
      </trkpt>
      <trkpt lat="44.82802" lon="1.28456">
        <ele>85.8</ele>
      </trkpt>
      <trkpt lat="44.82802" lon="1.28486">
        <ele>85.4</ele>
      </trkpt>
      <trkpt lat="44.82802" lon="1.28494">
        <ele>85.4</ele>
      </trkpt>
      <trkpt lat="44.82802" lon="1.28498">
        <ele>85.4</ele>
      </trkpt>
      <trkpt lat="44.82801" lon="1.28529">
        <ele>84.3</ele>
      </trkpt>
      <trkpt lat="44.82796" lon="1.28556">
        <ele>84.1</ele>
      </trkpt>
      <trkpt lat="44.82789" lon="1.2858">
        <ele>83.9</ele>
      </trkpt>
      <trkpt lat="44.82782" lon="1.28595">
        <ele>83</ele>
      </trkpt>
      <trkpt lat="44.82779" lon="1.28601">
        <ele>82.9</ele>
      </trkpt>
      <trkpt lat="44.82768" lon="1.28619">
        <ele>82.7</ele>
      </trkpt>
      <trkpt lat="44.82774" lon="1.28626">
        <ele>82.7</ele>
      </trkpt>
      <trkpt lat="44.82782" lon="1.28632">
        <ele>82.7</ele>
      </trkpt>
      <trkpt lat="44.8279" lon="1.28637">
        <ele>82.8</ele>
      </trkpt>
      <trkpt lat="44.82808" lon="1.28641">
        <ele>83</ele>
      </trkpt>
      <trkpt lat="44.82827" lon="1.2864">
        <ele>83.2</ele>
      </trkpt>
      <trkpt lat="44.82859" lon="1.28629">
        <ele>86.5</ele>
      </trkpt>
      <trkpt lat="44.82879" lon="1.28624">
        <ele>87.1</ele>
      </trkpt>
      <trkpt lat="44.82891" lon="1.28625">
        <ele>87.5</ele>
      </trkpt>
      <trkpt lat="44.82899" lon="1.28629">
        <ele>87.7</ele>
      </trkpt>
      <trkpt lat="44.8291" lon="1.28639">
        <ele>88.1</ele>
      </trkpt>
      <trkpt lat="44.82917" lon="1.28631">
        <ele>88</ele>
      </trkpt>
      <trkpt lat="44.82923" lon="1.28625">
        <ele>89.8</ele>
      </trkpt>
      <trkpt lat="44.82931" lon="1.28616">
        <ele>89.8</ele>
      </trkpt>
      <trkpt lat="44.82935" lon="1.28611">
        <ele>89.8</ele>
      </trkpt>
      <trkpt lat="44.82955" lon="1.28601">
        <ele>90</ele>
      </trkpt>
      <trkpt lat="44.82988" lon="1.28593">
        <ele>90.5</ele>
      </trkpt>
      <trkpt lat="44.83027" lon="1.28581">
        <ele>94.8</ele>
      </trkpt>
      <trkpt lat="44.83046" lon="1.28573">
        <ele>96.3</ele>
      </trkpt>
      <trkpt lat="44.83052" lon="1.28572">
        <ele>96.7</ele>
      </trkpt>
      <trkpt lat="44.83077" lon="1.28574">
        <ele>98</ele>
      </trkpt>
      <trkpt lat="44.8312" lon="1.28581">
        <ele>99.5</ele>
      </trkpt>
      <trkpt lat="44.83142" lon="1.28585">
        <ele>100</ele>
      </trkpt>
      <trkpt lat="44.83174" lon="1.28596">
        <ele>99.6</ele>
      </trkpt>
      <trkpt lat="44.83193" lon="1.28603">
        <ele>100</ele>
      </trkpt>
      <trkpt lat="44.83214" lon="1.28606">
        <ele>100.2</ele>
      </trkpt>
      <trkpt lat="44.83237" lon="1.28606">
        <ele>100.5</ele>
      </trkpt>
      <trkpt lat="44.83261" lon="1.28601">
        <ele>101.9</ele>
      </trkpt>
      <trkpt lat="44.83278" lon="1.28594">
        <ele>102.2</ele>
      </trkpt>
      <trkpt lat="44.83299" lon="1.28585">
        <ele>103.1</ele>
      </trkpt>
      <trkpt lat="44.8334" lon="1.28564">
        <ele>109.3</ele>
      </trkpt>
      <trkpt lat="44.83359" lon="1.28556">
        <ele>110.8</ele>
      </trkpt>
      <trkpt lat="44.83382" lon="1.28542">
        <ele>111.9</ele>
      </trkpt>
      <trkpt lat="44.83419" lon="1.28519">
        <ele>115.4</ele>
      </trkpt>
      <trkpt lat="44.83436" lon="1.28513">
        <ele>115.6</ele>
      </trkpt>
      <trkpt lat="44.83436" lon="1.28539">
        <ele>115.6</ele>
      </trkpt>
      <trkpt lat="44.83436" lon="1.28545">
        <ele>115.5</ele>
      </trkpt>
      <trkpt lat="44.83436" lon="1.28539">
        <ele>116</ele>
      </trkpt>
      <trkpt lat="44.83436" lon="1.28513">
        <ele>116</ele>
      </trkpt>
      <trkpt lat="44.83438" lon="1.28512">
        <ele>115.7</ele>
      </trkpt>
      <trkpt lat="44.83441" lon="1.28512">
        <ele>115.7</ele>
      </trkpt>
      <trkpt lat="44.83454" lon="1.28506">
        <ele>116</ele>
      </trkpt>
      <trkpt lat="44.83469" lon="1.28495">
        <ele>120.5</ele>
      </trkpt>
      <trkpt lat="44.83497" lon="1.28472">
        <ele>121.7</ele>
      </trkpt>
      <trkpt lat="44.8354" lon="1.28431">
        <ele>124.4</ele>
      </trkpt>
      <trkpt lat="44.83573" lon="1.28397">
        <ele>126.5</ele>
      </trkpt>
      <trkpt lat="44.83608" lon="1.28363">
        <ele>122.2</ele>
      </trkpt>
      <trkpt lat="44.83633" lon="1.28343">
        <ele>121</ele>
      </trkpt>
      <trkpt lat="44.83661" lon="1.28336">
        <ele>118.8</ele>
      </trkpt>
      <trkpt lat="44.83678" lon="1.28336">
        <ele>118.4</ele>
      </trkpt>
      <trkpt lat="44.83695" lon="1.28336">
        <ele>118.7</ele>
      </trkpt>
      <trkpt lat="44.83716" lon="1.28338">
        <ele>119.2</ele>
      </trkpt>
      <trkpt lat="44.8373" lon="1.28339">
        <ele>119.4</ele>
      </trkpt>
      <trkpt lat="44.83752" lon="1.28342">
        <ele>120.8</ele>
      </trkpt>
      <trkpt lat="44.8377" lon="1.28344">
        <ele>121.6</ele>
      </trkpt>
      <trkpt lat="44.83782" lon="1.28345">
        <ele>122.1</ele>
      </trkpt>
      <trkpt lat="44.83822" lon="1.28341">
        <ele>123.9</ele>
      </trkpt>
      <trkpt lat="44.83845" lon="1.2834">
        <ele>125.1</ele>
      </trkpt>
      <trkpt lat="44.83846" lon="1.2834">
        <ele>125.1</ele>
      </trkpt>
      <trkpt lat="44.83857" lon="1.28339">
        <ele>125.1</ele>
      </trkpt>
      <trkpt lat="44.83863" lon="1.28341">
        <ele>125.2</ele>
      </trkpt>
      <trkpt lat="44.83867" lon="1.28344">
        <ele>125.2</ele>
      </trkpt>
      <trkpt lat="44.83871" lon="1.28351">
        <ele>125.2</ele>
      </trkpt>
      <trkpt lat="44.83873" lon="1.28363">
        <ele>125.3</ele>
      </trkpt>
      <trkpt lat="44.83877" lon="1.28378">
        <ele>125.6</ele>
      </trkpt>
      <trkpt lat="44.83881" lon="1.28401">
        <ele>126</ele>
      </trkpt>
      <trkpt lat="44.83882" lon="1.28406">
        <ele>126.1</ele>
      </trkpt>
      <trkpt lat="44.83886" lon="1.28412">
        <ele>126.3</ele>
      </trkpt>
      <trkpt lat="44.83895" lon="1.28422">
        <ele>128</ele>
      </trkpt>
      <trkpt lat="44.83908" lon="1.2843">
        <ele>128.4</ele>
      </trkpt>
      <trkpt lat="44.83928" lon="1.28441">
        <ele>132.3</ele>
      </trkpt>
      <trkpt lat="44.83944" lon="1.28452">
        <ele>133.5</ele>
      </trkpt>
      <trkpt lat="44.83963" lon="1.28466">
        <ele>134.6</ele>
      </trkpt>
      <trkpt lat="44.83967" lon="1.2847">
        <ele>134.8</ele>
      </trkpt>
      <trkpt lat="44.83972" lon="1.28472">
        <ele>135.1</ele>
      </trkpt>
      <trkpt lat="44.83979" lon="1.28472">
        <ele>135.5</ele>
      </trkpt>
      <trkpt lat="44.83986" lon="1.2847">
        <ele>135.7</ele>
      </trkpt>
      <trkpt lat="44.83995" lon="1.28464">
        <ele>135.7</ele>
      </trkpt>
      <trkpt lat="44.84011" lon="1.28457">
        <ele>141</ele>
      </trkpt>
      <trkpt lat="44.84022" lon="1.28454">
        <ele>141.4</ele>
      </trkpt>
      <trkpt lat="44.84019" lon="1.28465">
        <ele>141.4</ele>
      </trkpt>
      <trkpt lat="44.84018" lon="1.28482">
        <ele>141.1</ele>
      </trkpt>
      <trkpt lat="44.84017" lon="1.28492">
        <ele>140.8</ele>
      </trkpt>
      <trkpt lat="44.84029" lon="1.285">
        <ele>140.7</ele>
      </trkpt>
      <trkpt lat="44.84058" lon="1.28525">
        <ele>141.7</ele>
      </trkpt>
      <trkpt lat="44.84086" lon="1.28541">
        <ele>143.3</ele>
      </trkpt>
      <trkpt lat="44.84127" lon="1.2856">
        <ele>143</ele>
      </trkpt>
      <trkpt lat="44.84156" lon="1.28572">
        <ele>142.3</ele>
      </trkpt>
      <trkpt lat="44.84168" lon="1.28576">
        <ele>142.6</ele>
      </trkpt>
      <trkpt lat="44.84197" lon="1.28579">
        <ele>145.1</ele>
      </trkpt>
      <trkpt lat="44.84218" lon="1.28582">
        <ele>146</ele>
      </trkpt>
      <trkpt lat="44.84246" lon="1.28586">
        <ele>145.3</ele>
      </trkpt>
      <trkpt lat="44.84275" lon="1.28596">
        <ele>148.2</ele>
      </trkpt>
      <trkpt lat="44.84276" lon="1.28597">
        <ele>148.3</ele>
      </trkpt>
      <trkpt lat="44.84305" lon="1.28611">
        <ele>149.9</ele>
      </trkpt>
      <trkpt lat="44.84325" lon="1.28623">
        <ele>150.5</ele>
      </trkpt>
      <trkpt lat="44.84339" lon="1.28638">
        <ele>156</ele>
      </trkpt>
      <trkpt lat="44.84351" lon="1.28652">
        <ele>155.9</ele>
      </trkpt>
      <trkpt lat="44.84361" lon="1.2867">
        <ele>155.8</ele>
      </trkpt>
      <trkpt lat="44.84372" lon="1.28683">
        <ele>156.5</ele>
      </trkpt>
      <trkpt lat="44.8438" lon="1.2869">
        <ele>156.9</ele>
      </trkpt>
      <trkpt lat="44.84402" lon="1.28704">
        <ele>157.5</ele>
      </trkpt>
      <trkpt lat="44.84427" lon="1.28718">
        <ele>161.5</ele>
      </trkpt>
      <trkpt lat="44.84446" lon="1.28721">
        <ele>162.1</ele>
      </trkpt>
      <trkpt lat="44.8447" lon="1.28724">
        <ele>162.8</ele>
      </trkpt>
      <trkpt lat="44.84482" lon="1.28727">
        <ele>163</ele>
      </trkpt>
      <trkpt lat="44.8449" lon="1.28732">
        <ele>162.8</ele>
      </trkpt>
      <trkpt lat="44.84502" lon="1.28743">
        <ele>163.6</ele>
      </trkpt>
      <trkpt lat="44.84513" lon="1.2875">
        <ele>164.6</ele>
      </trkpt>
      <trkpt lat="44.84528" lon="1.28754">
        <ele>160.9</ele>
      </trkpt>
      <trkpt lat="44.84549" lon="1.28759">
        <ele>161.3</ele>
      </trkpt>
      <trkpt lat="44.84554" lon="1.28761">
        <ele>161.5</ele>
      </trkpt>
      <trkpt lat="44.84575" lon="1.28769">
        <ele>162.3</ele>
      </trkpt>
      <trkpt lat="44.84601" lon="1.28783">
        <ele>160.9</ele>
      </trkpt>
      <trkpt lat="44.84622" lon="1.28799">
        <ele>159.9</ele>
      </trkpt>
      <trkpt lat="44.84643" lon="1.28813">
        <ele>159.7</ele>
      </trkpt>
      <trkpt lat="44.84669" lon="1.28835">
        <ele>160.1</ele>
      </trkpt>
      <trkpt lat="44.84692" lon="1.28854">
        <ele>161.1</ele>
      </trkpt>
      <trkpt lat="44.8471" lon="1.28869">
        <ele>161.5</ele>
      </trkpt>
      <trkpt lat="44.84724" lon="1.28883">
        <ele>161.9</ele>
      </trkpt>
      <trkpt lat="44.84733" lon="1.28894">
        <ele>162.3</ele>
      </trkpt>
      <trkpt lat="44.8474" lon="1.28904">
        <ele>162.8</ele>
      </trkpt>
      <trkpt lat="44.84747" lon="1.28896">
        <ele>162.6</ele>
      </trkpt>
    </trkseg>
  </trk>
</gpx>